Dades meteomassalio
Diari Summary for Abril 30, 2017 Units:  Metric    English   Both
« Previous Day
Next Day »
Diari Semanal Mensual Anual Personalitzat
  Maxima: Minima: Mijana:
Temperatura: 23.4 °C 7.4 °C 14.2 °C
Rosada: 11.2 °C 5.4 °C 7.7 °C
Humitat: 92 % 32 % 70 %
Velocitat del vent: 61.1 km/h 0.0 km/h 10.3 km/h
Racha vent: 61.1 km/h - -
Vent:- - WSW
Pressio: 1013.1 hPa 1006.0 hPa -
Pluja: 1.5 mm    
Historical Graphs
 
 
Tabular Data for Abril 30, 2017
Time Temperature Dew Point Pressure Wind Wind Speed Wind Gust Humidity Rainfall Rate (Hourly) solar Conditions
00:00 9.4 °C 7.4 °C 1013.1 hPa Calm     87 % 0.0 mm 0.0 W/m2 RA
00:05 9.3 °C 7.4 °C 1013.1 hPa Calm     88 % 0.0 mm 0.0 W/m2 CLR
00:10 9.4 °C 7.5 °C 1013.1 hPa Calm     88 % 0.0 mm 0.0 W/m2 CLR
00:15 9.5 °C 7.6 °C 1013.1 hPa Calm     88 % 0.0 mm 0.0 W/m2 CLR
00:20 9.7 °C 7.8 °C 1013.1 hPa Calm     88 % 0.0 mm 0.0 W/m2 CLR
00:25 9.8 °C 7.7 °C 1013.1 hPa SE 5.6 km/h   87 % 0.0 mm 0.0 W/m2 CLR
00:30 9.8 °C 7.8 °C 1013.1 hPa Calm     87 % 0.0 mm 0.0 W/m2 CLR
00:35 9.9 °C 7.8 °C 1012.8 hPa Calm     87 % 0.0 mm 0.0 W/m2 CLR
00:40 9.9 °C 7.8 °C 1012.8 hPa Calm     87 % 0.0 mm 0.0 W/m2 CLR
00:45 9.9 °C 7.8 °C 1012.8 hPa Calm     87 % 0.0 mm 0.0 W/m2 CLR
00:50 9.9 °C 7.9 °C 1012.8 hPa Calm     87 % 0.0 mm 0.0 W/m2 CLR
00:55 10.0 °C 7.9 °C 1012.8 hPa Calm     87 % 0.0 mm 0.0 W/m2 CLR
01:00 9.9 °C 7.8 °C 1012.8 hPa Calm     87 % 0.0 mm 0.0 W/m2 CLR
01:05 9.8 °C 7.9 °C 1012.8 hPa Calm     88 % 0.0 mm 0.0 W/m2 CLR
01:10 9.8 °C 7.9 °C 1013.1 hPa WSW 1.6 km/h   88 % 0.0 mm 0.0 W/m2 CLR
01:15 9.9 °C 7.8 °C 1012.8 hPa Calm     87 % 0.0 mm 0.0 W/m2 CLR
01:20 9.7 °C 7.7 °C 1012.8 hPa Calm     87 % 0.0 mm 0.0 W/m2 CLR
01:25 9.5 °C 7.4 °C 1012.8 hPa Calm     87 % 0.0 mm 0.0 W/m2 CLR
01:30 9.3 °C 7.4 °C 1012.8 hPa East 3.7 km/h 3.7 km/h 88 % 0.0 mm 0.0 W/m2 CLR
01:35 9.2 °C 7.4 °C 1012.8 hPa ESE 6.4 km/h 6.4 km/h 89 % 0.0 mm 0.0 W/m2 CLR
01:40 9.1 °C 7.4 °C 1012.8 hPa East 5.6 km/h 5.6 km/h 89 % 0.0 mm 0.0 W/m2 CLR
01:45 9.3 °C 7.6 °C 1012.8 hPa ESE 5.6 km/h 5.6 km/h 89 % 0.0 mm 0.0 W/m2 CLR
01:50 9.5 °C 7.8 °C 1012.8 hPa ESE 7.4 km/h 7.4 km/h 89 % 0.0 mm 0.0 W/m2 CLR
01:55 9.7 °C 7.8 °C 1012.4 hPa ESE 5.6 km/h 5.6 km/h 88 % 0.0 mm 0.0 W/m2 CLR
02:00 9.6 °C 7.7 °C 1012.4 hPa ESE 5.6 km/h 5.6 km/h 88 % 0.0 mm 0.0 W/m2 CLR
02:05 9.5 °C 7.6 °C 1012.4 hPa Calm     88 % 0.0 mm 0.0 W/m2 CLR
02:10 9.4 °C 7.6 °C 1012.4 hPa Calm     88 % 0.0 mm 0.0 W/m2 CLR
02:15 9.5 °C 7.6 °C 1012.4 hPa Calm     88 % 0.0 mm 0.0 W/m2 CLR
02:20 9.7 °C 7.8 °C 1012.1 hPa SE 6.4 km/h 6.4 km/h 88 % 0.0 mm 0.0 W/m2 CLR
02:25 9.9 °C 7.8 °C 1012.4 hPa Calm     87 % 0.0 mm 0.0 W/m2 CLR
02:30 9.9 °C 7.9 °C 1012.1 hPa Calm     87 % 0.0 mm 0.0 W/m2 CLR
02:35 9.9 °C 7.9 °C 1012.1 hPa Calm     87 % 0.0 mm 0.0 W/m2 CLR
02:40 9.8 °C 7.8 °C 1012.1 hPa Calm     87 % 0.0 mm 0.0 W/m2 CLR
02:45 9.7 °C 7.7 °C 1012.1 hPa Calm     87 % 0.0 mm 0.0 W/m2 CLR
02:50 9.6 °C 7.5 °C 1012.1 hPa Calm     87 % 0.0 mm 0.0 W/m2 CLR
02:55 9.3 °C 7.4 °C 1012.1 hPa Calm     88 % 0.0 mm 0.0 W/m2 CLR
03:00 9.2 °C 7.3 °C 1012.1 hPa Calm     88 % 0.0 mm 0.0 W/m2 CLR
03:05 9.0 °C 7.1 °C 1012.1 hPa Calm     88 % 0.0 mm 0.0 W/m2 CLR
03:10 8.9 °C 7.2 °C 1012.1 hPa Calm     89 % 0.0 mm 0.0 W/m2 CLR
03:16 8.8 °C 7.1 °C 1011.7 hPa Calm     89 % 0.0 mm 0.0 W/m2 CLR
03:21 8.8 °C 7.1 °C 1011.7 hPa Calm     89 % 0.0 mm 0.0 W/m2 CLR
03:26 8.6 °C 6.9 °C 1011.7 hPa Calm     89 % 0.0 mm 0.0 W/m2 CLR
03:31 8.3 °C 6.6 °C 1011.7 hPa Calm     89 % 0.0 mm 0.0 W/m2 CLR
03:36 8.5 °C 7.1 °C 1011.7 hPa Calm     91 % 0.0 mm 0.0 W/m2 CLR
03:41 8.4 °C 6.9 °C 1011.7 hPa Calm     90 % 0.0 mm 0.0 W/m2 CLR
03:46 8.3 °C 6.7 °C 1011.7 hPa Calm     90 % 0.0 mm 0.0 W/m2 CLR
03:51 8.2 °C 6.6 °C 1011.7 hPa Calm     90 % 0.0 mm 0.0 W/m2 CLR
03:56 8.0 °C 6.4 °C 1011.7 hPa Calm     90 % 0.0 mm 0.0 W/m2 CLR
04:01 8.0 °C 6.4 °C 1011.7 hPa Calm     90 % 0.0 mm 0.0 W/m2 CLR
04:06 7.8 °C 6.3 °C 1011.7 hPa Calm     90 % 0.0 mm 0.0 W/m2 CLR
04:11 7.7 °C 6.3 °C 1011.7 hPa Calm     91 % 0.0 mm 0.0 W/m2 CLR
04:16 7.7 °C 6.3 °C 1011.7 hPa Calm     91 % 0.0 mm 0.0 W/m2 CLR
04:21 7.6 °C 6.2 °C 1011.7 hPa Calm     91 % 0.0 mm 0.0 W/m2 CLR
04:26 7.6 °C 6.2 °C 1011.7 hPa Calm     91 % 0.0 mm 0.0 W/m2 CLR
04:31 7.7 °C 6.4 °C 1011.7 hPa Calm     92 % 0.0 mm 0.0 W/m2 CLR
04:36 7.7 °C 6.5 °C 1011.7 hPa Calm     92 % 0.0 mm 0.0 W/m2 CLR
04:41 7.7 °C 6.3 °C 1011.7 hPa Calm     91 % 0.0 mm 0.0 W/m2 CLR
04:46 7.6 °C 6.4 °C 1011.7 hPa Calm     92 % 0.0 mm 0.0 W/m2 CLR
04:51 7.6 °C 6.4 °C 1011.7 hPa Calm     92 % 0.0 mm 0.0 W/m2 CLR
04:56 7.7 °C 6.4 °C 1011.7 hPa Calm     92 % 0.0 mm 0.0 W/m2 CLR
05:01 7.8 °C 6.6 °C 1011.7 hPa Calm     92 % 0.0 mm 0.0 W/m2 CLR
05:06 7.8 °C 6.6 °C 1011.7 hPa Calm     92 % 0.0 mm 0.0 W/m2 CLR
05:11 7.8 °C 6.6 °C 1011.7 hPa Calm     92 % 0.0 mm 0.0 W/m2 CLR
05:16 7.8 °C 6.6 °C 1011.7 hPa Calm     92 % 0.0 mm 0.0 W/m2 CLR
05:21 8.0 °C 6.8 °C 1011.7 hPa Calm     92 % 0.0 mm 0.0 W/m2 CLR
05:26 8.2 °C 7.0 °C 1011.7 hPa Calm     92 % 0.0 mm 0.0 W/m2 CLR
05:31 8.4 °C 7.2 °C 1011.4 hPa Calm     92 % 0.0 mm 0.0 W/m2 CLR
05:36 8.4 °C 7.2 °C 1011.7 hPa Calm     92 % 0.0 mm 0.0 W/m2 CLR
05:41 8.5 °C 7.3 °C 1011.7 hPa Calm     92 % 0.0 mm 0.0 W/m2 CLR
05:46 8.4 °C 7.2 °C 1011.4 hPa Calm     92 % 0.0 mm 0.0 W/m2 CLR
05:51 8.4 °C 7.0 °C 1011.4 hPa Calm     91 % 0.0 mm 0.0 W/m2 CLR
05:56 8.4 °C 7.0 °C 1011.7 hPa Calm     91 % 0.0 mm 0.0 W/m2 CLR
06:01 8.4 °C 7.2 °C 1011.7 hPa Calm     92 % 0.0 mm 0.0 W/m2 CLR
06:06 8.3 °C 6.9 °C 1011.7 hPa Calm     91 % 0.0 mm 0.0 W/m2 CLR
06:11 8.3 °C 7.1 °C 1011.4 hPa Calm     92 % 0.0 mm 0.0 W/m2 CLR
06:17 8.2 °C 6.8 °C 1011.4 hPa Calm     91 % 0.0 mm 0.0 W/m2 CLR
06:22 8.1 °C 6.7 °C 1011.7 hPa Calm     91 % 0.0 mm 0.0 W/m2 CLR
06:27 8.1 °C 6.8 °C 1011.4 hPa Calm     92 % 0.0 mm 0.0 W/m2 CLR
06:32 7.9 °C 6.6 °C 1011.7 hPa Calm     91 % 0.0 mm 0.0 W/m2 CLR
06:37 7.9 °C 6.5 °C 1011.7 hPa Calm     91 % 0.0 mm 0.0 W/m2 CLR
06:42 7.8 °C 6.4 °C 1011.4 hPa Calm     91 % 0.0 mm 0.0 W/m2 CLR
06:47 7.8 °C 6.6 °C 1011.4 hPa Calm     92 % 0.0 mm 0.0 W/m2 CLR
06:52 7.7 °C 6.4 °C 1011.4 hPa Calm     92 % 0.0 mm 0.0 W/m2 OVC
06:57 7.7 °C 6.5 °C 1011.4 hPa Calm     92 % 0.0 mm 5.0 W/m2 OVC
07:02 7.7 °C 6.4 °C 1011.4 hPa Calm     92 % 0.0 mm 5.0 W/m2 OVC
07:07 7.7 °C 6.4 °C 1011.4 hPa Calm     92 % 0.0 mm 12.0 W/m2 BKN
07:12 7.6 °C 6.3 °C 1011.7 hPa Calm     92 % 0.0 mm 19.0 W/m2 BKN
07:17 7.4 °C 6.1 °C 1011.7 hPa Calm     91 % 0.0 mm 30.0 W/m2 BKN
07:22 7.5 °C 6.3 °C 1011.7 hPa Calm     92 % 0.0 mm 30.0 W/m2 BKN
07:27 7.6 °C 6.3 °C 1011.7 hPa Calm     92 % 0.0 mm 44.0 W/m2 BKN
07:32 7.6 °C 6.3 °C 1011.7 hPa Calm     92 % 0.0 mm 54.0 W/m2 SCT
07:37 7.7 °C 6.5 °C 1011.7 hPa Calm     92 % 0.0 mm 49.0 W/m2 SCT
07:42 7.9 °C 6.7 °C 1011.7 hPa Calm     92 % 0.0 mm 51.0 W/m2 SCT
07:47 8.1 °C 6.9 °C 1011.7 hPa Calm     92 % 0.0 mm 56.0 W/m2 SCT
07:52 8.2 °C 7.0 °C 1011.7 hPa Calm     92 % 0.0 mm 86.0 W/m2 FEW
07:57 8.3 °C 7.1 °C 1011.4 hPa Calm     92 % 0.0 mm 97.0 W/m2 CLR
08:02 8.5 °C 7.3 °C 1011.4 hPa Calm     92 % 0.0 mm 93.0 W/m2 CLR
08:07 8.7 °C 7.5 °C 1011.7 hPa Calm     92 % 0.0 mm 86.0 W/m2 CLR
08:12 8.9 °C 7.7 °C 1011.4 hPa Calm     92 % 0.0 mm 91.0 W/m2 CLR
08:17 9.1 °C 7.9 °C 1011.4 hPa Calm     92 % 0.0 mm 98.0 W/m2 CLR
08:22 9.3 °C 8.1 °C 1011.4 hPa Calm     92 % 0.0 mm 100.0 W/m2 CLR
08:27 9.5 °C 8.3 °C 1011.4 hPa Calm     92 % 0.0 mm 109.0 W/m2 CLR
08:32 9.8 °C 8.6 °C 1011.4 hPa Calm     92 % 0.0 mm 118.0 W/m2 CLR
08:37 10.1 °C 8.7 °C 1011.4 hPa Calm     91 % 0.0 mm 132.0 W/m2 CLR
08:42 10.3 °C 8.9 °C 1011.4 hPa Calm     91 % 0.0 mm 144.0 W/m2 CLR
08:47 10.5 °C 8.9 °C 1011.1 hPa Calm     90 % 0.0 mm 155.0 W/m2 CLR
08:52 10.7 °C 8.9 °C 1011.4 hPa Calm     89 % 0.0 mm 165.0 W/m2 CLR
08:57 10.8 °C 9.1 °C 1011.1 hPa Calm     89 % 0.0 mm 178.0 W/m2 CLR
09:02 11.0 °C 9.3 °C 1011.1 hPa Calm     89 % 0.0 mm 193.0 W/m2 CLR
09:07 11.2 °C 9.5 °C 1011.1 hPa Calm     89 % 0.0 mm 206.0 W/m2 CLR
09:12 11.3 °C 9.4 °C 1011.1 hPa Calm     88 % 0.0 mm 200.0 W/m2 CLR
09:17 11.6 °C 9.6 °C 1011.1 hPa Calm     88 % 0.0 mm 193.0 W/m2 CLR
09:22 11.8 °C 9.8 °C 1010.7 hPa Calm     88 % 0.0 mm 186.0 W/m2 CLR
09:27 12.0 °C 9.9 °C 1010.7 hPa Calm     87 % 0.0 mm 178.0 W/m2 CLR
09:32 12.2 °C 9.9 °C 1010.7 hPa Calm     86 % 0.0 mm 206.0 W/m2 CLR
09:37 12.4 °C 10.2 °C 1010.7 hPa Calm     86 % 0.0 mm 274.0 W/m2 CLR
09:42 12.8 °C 10.3 °C 1010.7 hPa Calm     85 % 0.0 mm 366.0 W/m2 CLR
09:47 13.2 °C 10.8 °C 1010.7 hPa Calm     85 % 0.0 mm 420.0 W/m2 CLR
09:52 13.7 °C 10.8 °C 1010.4 hPa Calm     83 % 0.0 mm 302.0 W/m2 CLR
09:57 14.0 °C 10.8 °C 1010.7 hPa Calm     81 % 0.0 mm 297.0 W/m2 CLR
10:02 14.3 °C 10.7 °C 1010.4 hPa Calm     79 % 0.0 mm 332.0 W/m2 CLR
10:07 14.6 °C 10.8 °C 1010.4 hPa Calm     78 % 0.0 mm 413.0 W/m2 CLR
10:12 15.0 °C 11.0 °C 1010.4 hPa Calm     77 % 0.0 mm 473.0 W/m2 CLR
10:17 15.5 °C 11.1 °C 1010.4 hPa Calm     75 % 0.0 mm 496.0 W/m2 CLR
10:22 15.8 °C 11.2 °C 1010.4 hPa Calm     74 % 0.0 mm 571.0 W/m2 CLR
10:27 16.3 °C 11.2 °C 1010.4 hPa Calm     72 % 0.0 mm 603.0 W/m2 CLR
10:32 16.8 °C 11.1 °C 1010.4 hPa Calm     69 % 0.0 mm 563.0 W/m2 CLR
10:37 17.3 °C 11.1 °C 1010.0 hPa ESE 6.4 km/h 6.4 km/h 67 % 0.0 mm 659.0 W/m2 CLR
10:42 17.4 °C 10.6 °C 1010.0 hPa SE 8.0 km/h 8.0 km/h 64 % 0.0 mm 635.0 W/m2 CLR
10:47 17.6 °C 10.7 °C 1010.0 hPa SE 11.1 km/h 11.1 km/h 64 % 0.0 mm 649.0 W/m2 CLR
10:52 17.9 °C 10.7 °C 1010.0 hPa East 4.8 km/h   63 % 0.0 mm 573.0 W/m2 CLR
10:57 18.3 °C 9.9 °C 1009.7 hPa SSE 11.1 km/h 11.1 km/h 58 % 0.0 mm 687.0 W/m2 CLR
11:02 18.5 °C 10.1 °C 1009.7 hPa East 7.4 km/h 7.4 km/h 58 % 0.0 mm 675.0 W/m2 CLR
11:07 18.8 °C 9.9 °C 1009.7 hPa ESE 9.3 km/h 9.3 km/h 56 % 0.0 mm 696.0 W/m2 CLR
11:12 19.2 °C 9.9 °C 1009.7 hPa ENE 7.4 km/h 7.4 km/h 55 % 0.0 mm 724.0 W/m2 CLR
11:17 19.6 °C 10.0 °C 1009.4 hPa SE 11.3 km/h 11.3 km/h 54 % 0.0 mm 742.0 W/m2 CLR
11:22 19.7 °C 9.6 °C 1009.4 hPa SSE 9.3 km/h 9.3 km/h 52 % 0.0 mm 737.0 W/m2 CLR
11:27 20.0 °C 9.3 °C 1009.4 hPa NE 9.3 km/h 9.3 km/h 50 % 0.0 mm 807.0 W/m2 CLR
11:33 20.1 °C 9.3 °C 1009.4 hPa East 6.4 km/h 6.4 km/h 50 % 0.0 mm 824.0 W/m2 CLR
11:38 20.3 °C 9.2 °C 1009.0 hPa South 8.0 km/h 8.0 km/h 49 % 0.0 mm 816.0 W/m2 CLR
11:43 20.6 °C 9.2 °C 1009.0 hPa SSE 3.7 km/h   48 % 0.0 mm 821.0 W/m2 CLR
11:48 20.7 °C 8.7 °C 1009.0 hPa ESE 9.3 km/h 9.3 km/h 46 % 0.0 mm 937.0 W/m2 CLR
11:53 21.0 °C 7.9 °C 1009.0 hPa WNW 14.8 km/h 14.8 km/h 43 % 0.0 mm 926.0 W/m2 CLR
11:58 21.1 °C 8.1 °C 1009.0 hPa NW 16.7 km/h 16.7 km/h 43 % 0.0 mm 397.0 W/m2 CLR
12:03 21.1 °C 8.4 °C 1009.0 hPa NW 5.6 km/h 5.6 km/h 44 % 0.0 mm 833.0 W/m2 CLR
12:08 21.2 °C 8.1 °C 1008.7 hPa West 22.2 km/h 22.2 km/h 43 % 0.0 mm 413.0 W/m2 CLR
12:13 21.1 °C 7.7 °C 1008.7 hPa WSW 14.8 km/h 14.8 km/h 42 % 0.0 mm 381.0 W/m2 CLR
12:18 20.8 °C 8.1 °C 1008.7 hPa NW 11.1 km/h 11.1 km/h 44 % 0.0 mm 236.0 W/m2 CLR
12:23 20.6 °C 8.2 °C 1008.7 hPa WNW 8.0 km/h 8.0 km/h 45 % 0.0 mm 142.0 W/m2 CLR
12:28 20.4 °C 7.7 °C 1008.7 hPa West 13.0 km/h 13.0 km/h 44 % 0.0 mm 162.0 W/m2 CLR
12:33 20.2 °C 7.2 °C 1008.7 hPa West 11.1 km/h 11.1 km/h 43 % 0.0 mm 239.0 W/m2 CLR
12:38 20.2 °C 7.2 °C 1008.7 hPa West 5.6 km/h 5.6 km/h 43 % 0.0 mm 272.0 W/m2 CLR
12:43 20.3 °C 7.7 °C 1008.7 hPa West 9.3 km/h 9.3 km/h 44 % 0.0 mm 376.0 W/m2 CLR
12:48 20.5 °C 7.5 °C 1008.4 hPa Calm   2.7 km/h 43 % 0.0 mm 404.0 W/m2 CLR
12:53 20.9 °C 8.6 °C 1008.4 hPa Calm     45 % 0.0 mm 540.0 W/m2 CLR
12:58 21.6 °C 8.1 °C 1008.0 hPa Calm     42 % 0.0 mm 543.0 W/m2 CLR
13:03 21.8 °C 7.3 °C 1008.0 hPa Calm     39 % 0.0 mm 584.0 W/m2 CLR
13:08 21.9 °C 7.3 °C 1008.0 hPa Calm   0.2 km/h 39 % 0.0 mm 589.0 W/m2 CLR
13:13 22.1 °C 6.7 °C 1008.0 hPa WSW 14.8 km/h 14.8 km/h 37 % 0.0 mm 612.0 W/m2 CLR
13:18 22.0 °C 6.6 °C 1007.7 hPa SW 11.3 km/h 11.3 km/h 37 % 0.0 mm 707.0 W/m2 CLR
13:23 22.2 °C 6.8 °C 1007.7 hPa SSW 9.3 km/h 9.3 km/h 37 % 0.0 mm 515.0 W/m2 CLR
13:28 22.2 °C 6.4 °C 1007.7 hPa WNW 24.1 km/h 24.1 km/h 36 % 0.0 mm 508.0 W/m2 CLR
13:33 21.9 °C 6.6 °C 1007.7 hPa West 16.7 km/h 16.7 km/h 37 % 0.0 mm 473.0 W/m2 CLR
13:39 21.9 °C 6.1 °C 1007.7 hPa West 22.2 km/h 22.2 km/h 36 % 0.0 mm 439.0 W/m2 CLR
13:43 21.9 °C 6.1 °C 1007.7 hPa West 13.0 km/h 13.0 km/h 36 % 0.0 mm 654.0 W/m2 CLR
13:48 22.0 °C 6.2 °C 1007.3 hPa WSW 14.5 km/h 14.5 km/h 36 % 0.0 mm 568.0 W/m2 CLR
13:54 22.1 °C 5.5 °C 1007.3 hPa SSW 18.5 km/h 18.5 km/h 34 % 0.0 mm 517.0 W/m2 CLR
13:59 22.0 °C 5.4 °C 1007.3 hPa WSW 24.1 km/h 24.1 km/h 34 % 0.0 mm 592.0 W/m2 CLR
14:04 21.9 °C 6.1 °C 1007.3 hPa WSW 18.5 km/h 18.5 km/h 36 % 0.0 mm 700.0 W/m2 CLR
14:09 22.0 °C 5.8 °C 1007.3 hPa WSW 11.1 km/h 11.1 km/h 35 % 0.0 mm 668.0 W/m2 CLR
14:14 22.4 °C 6.6 °C 1007.3 hPa NW 14.8 km/h 14.8 km/h 36 % 0.0 mm 905.0 W/m2 CLR
14:19 22.7 °C 6.4 °C 1007.3 hPa SW 1.9 km/h   35 % 0.0 mm 802.0 W/m2 CLR
14:24 23.1 °C 7.2 °C 1007.3 hPa WNW 16.1 km/h 16.1 km/h 36 % 0.0 mm 940.0 W/m2 CLR
14:29 22.9 °C 6.2 °C 1007.3 hPa West 18.5 km/h 18.5 km/h 34 % 0.0 mm 911.0 W/m2 CLR
14:34 22.8 °C 6.5 °C 1007.0 hPa West 13.0 km/h 13.0 km/h 35 % 0.0 mm 775.0 W/m2 CLR
14:39 22.7 °C 5.6 °C 1007.3 hPa SW 16.7 km/h 16.7 km/h 33 % 0.0 mm 979.0 W/m2 CLR
14:44 22.8 °C 6.2 °C 1007.0 hPa WNW 13.0 km/h 13.0 km/h 34 % 0.0 mm 847.0 W/m2 CLR
14:49 23.0 °C 5.8 °C 1007.3 hPa NW 13.0 km/h 13.0 km/h 33 % 0.0 mm 710.0 W/m2 CLR
14:54 23.1 °C 5.5 °C 1007.3 hPa WSW 16.7 km/h 16.7 km/h 32 % 0.0 mm 923.0 W/m2 CLR
14:59 22.8 °C 5.7 °C 1007.3 hPa West 7.4 km/h 7.4 km/h 33 % 0.0 mm 1005.0 W/m2 CLR
15:04 23.1 °C 6.3 °C 1007.3 hPa WSW 11.1 km/h 11.1 km/h 34 % 0.0 mm 1049.0 W/m2 CLR
15:09 23.4 °C 6.2 °C 1007.3 hPa WNW 29.6 km/h 29.6 km/h 33 % 0.0 mm 691.0 W/m2 CLR
15:14 23.0 °C 5.8 °C 1007.3 hPa WNW 27.8 km/h 27.8 km/h 33 % 0.0 mm 341.0 W/m2 CLR
15:19 22.5 °C 5.4 °C 1007.3 hPa WNW 14.8 km/h 14.8 km/h 33 % 0.0 mm 336.0 W/m2 CLR
15:24 22.3 °C 5.7 °C 1007.3 hPa WNW 31.5 km/h 31.5 km/h 34 % 0.0 mm 330.0 W/m2 CLR
15:29 22.0 °C 5.4 °C 1007.3 hPa West 29.6 km/h 29.6 km/h 34 % 0.0 mm 406.0 W/m2 CLR
15:34 21.9 °C 5.7 °C 1007.3 hPa West 18.5 km/h 18.5 km/h 35 % 0.0 mm 371.0 W/m2 CLR
15:39 21.8 °C 5.7 °C 1007.0 hPa West 11.1 km/h 11.1 km/h 35 % 0.0 mm 411.0 W/m2 CLR
15:44 22.0 °C 5.8 °C 1007.0 hPa WSW 9.3 km/h 9.3 km/h 35 % 0.0 mm 425.0 W/m2 CLR
15:49 22.3 °C 6.5 °C 1007.0 hPa WNW 9.7 km/h 9.7 km/h 36 % 0.0 mm 483.0 W/m2 CLR
15:54 22.4 °C 6.2 °C 1007.0 hPa WNW 9.7 km/h 9.7 km/h 35 % 0.0 mm 390.0 W/m2 CLR
15:59 22.3 °C 6.1 °C 1007.0 hPa WSW 13.0 km/h 13.0 km/h 35 % 0.0 mm 429.0 W/m2 CLR
16:04 22.2 °C 6.0 °C 1006.7 hPa SW 29.6 km/h 29.6 km/h 35 % 0.0 mm 338.0 W/m2 CLR
16:09 22.3 °C 6.5 °C 1007.0 hPa West 20.4 km/h 20.4 km/h 36 % 0.0 mm 350.0 W/m2 CLR
16:14 22.2 °C 6.4 °C 1007.0 hPa WNW 20.9 km/h 20.9 km/h 36 % 0.0 mm 408.0 W/m2 CLR
16:19 22.3 °C 6.6 °C 1006.7 hPa WNW 5.6 km/h 5.6 km/h 36 % 0.0 mm 570.0 W/m2 CLR
16:24 22.5 °C 6.7 °C 1006.7 hPa West 7.4 km/h 7.4 km/h 36 % 0.0 mm 285.0 W/m2 CLR
16:29 22.7 °C 6.9 °C 1006.7 hPa West 16.7 km/h 16.7 km/h 36 % 0.0 mm 392.0 W/m2 CLR
16:34 22.6 °C 6.4 °C 1006.7 hPa WNW 19.3 km/h 19.3 km/h 35 % 0.0 mm 425.0 W/m2 CLR
16:39 23.0 °C 7.1 °C 1006.7 hPa SSW 18.5 km/h 18.5 km/h 36 % 0.0 mm 853.0 W/m2 CLR
16:44 22.7 °C 6.1 °C 1006.7 hPa WSW 5.6 km/h 5.6 km/h 34 % 0.0 mm 225.0 W/m2 CLR
16:49 22.5 °C 6.3 °C 1006.7 hPa SSW 20.4 km/h 20.4 km/h 35 % 0.0 mm 262.0 W/m2 CLR
16:54 22.4 °C 6.6 °C 1006.7 hPa WNW 22.2 km/h 22.2 km/h 36 % 0.0 mm 313.0 W/m2 CLR
16:59 22.6 °C 6.8 °C 1006.3 hPa SSW 9.3 km/h 9.3 km/h 36 % 0.0 mm 325.0 W/m2 CLR
17:04 22.8 °C 6.6 °C 1006.3 hPa West 31.5 km/h 31.5 km/h 35 % 0.0 mm 483.0 W/m2 CLR
17:09 22.6 °C 6.8 °C 1006.3 hPa West 29.6 km/h 29.6 km/h 36 % 0.0 mm 253.0 W/m2 CLR
17:14 22.9 °C 7.1 °C 1006.0 hPa WSW 19.3 km/h 19.3 km/h 36 % 0.0 mm 253.0 W/m2 CLR
17:19 22.7 °C 6.9 °C 1006.3 hPa WSW 33.3 km/h 33.3 km/h 36 % 0.0 mm 258.0 W/m2 CLR
17:24 22.6 °C 6.7 °C 1006.3 hPa WSW 29.6 km/h 29.6 km/h 36 % 0.0 mm 311.0 W/m2 CLR
17:29 22.8 °C 6.6 °C 1006.3 hPa West 37.0 km/h 37.0 km/h 35 % 0.0 mm 232.0 W/m2 CLR
17:34 22.7 °C 6.1 °C 1006.0 hPa SW 61.1 km/h 61.1 km/h 34 % 0.0 mm 715.0 W/m2 CLR
17:39 22.9 °C 6.6 °C 1006.0 hPa West 44.4 km/h 44.4 km/h 35 % 0.0 mm 619.0 W/m2 CLR
17:44 22.6 °C 6.3 °C 1006.0 hPa West 46.3 km/h 46.3 km/h 35 % 0.0 mm 582.0 W/m2 CLR
17:49 22.0 °C 6.6 °C 1006.3 hPa WSW 31.5 km/h 31.5 km/h 37 % 0.0 mm 127.0 W/m2 CLR
17:54 21.8 °C 6.5 °C 1006.3 hPa West 37.0 km/h 37.0 km/h 37 % 0.0 mm 134.0 W/m2 CLR
17:59 21.4 °C 6.2 °C 1006.3 hPa WSW 48.1 km/h 48.1 km/h 37 % 0.0 mm 174.0 W/m2 CLR
18:04 21.4 °C 6.1 °C 1006.3 hPa West 50.0 km/h 50.0 km/h 37 % 0.0 mm 262.0 W/m2 CLR
18:09 21.2 °C 6.3 °C 1006.3 hPa West 37.0 km/h 37.0 km/h 38 % 0.0 mm 139.0 W/m2 CLR
18:14 21.1 °C 6.2 °C 1006.7 hPa WNW 37.0 km/h 37.0 km/h 38 % 0.0 mm 197.0 W/m2 CLR
18:16 21.2 °C 6.3 °C 1006.7 hPa WNW 44.4 km/h 44.4 km/h 38 % 0.0 mm 197.0 W/m2 CLR
18:21 21.2 °C 6.7 °C 1006.7 hPa WNW 35.2 km/h 35.2 km/h 39 % 0.0 mm 178.0 W/m2 CLR
18:26 21.1 °C 6.2 °C 1006.3 hPa WSW 46.3 km/h 46.3 km/h 38 % 0.0 mm 155.0 W/m2 CLR
18:31 21.3 °C 6.8 °C 1006.3 hPa SW 35.2 km/h 35.2 km/h 39 % 0.0 mm 552.0 W/m2 CLR
18:36 21.3 °C 6.8 °C 1006.7 hPa WSW 35.2 km/h 35.2 km/h 39 % 0.0 mm 438.0 W/m2 CLR
18:41 21.0 °C 6.5 °C 1006.7 hPa WNW 27.8 km/h 27.8 km/h 39 % 0.0 mm 86.0 W/m2 CLR
18:42 20.9 °C 6.8 °C 1006.7 hPa West 31.5 km/h 31.5 km/h 40 % 0.0 mm 93.0 W/m2 CLR
18:47 20.7 °C 6.6 °C 1006.7 hPa West 33.8 km/h 33.8 km/h 40 % 0.0 mm 141.0 W/m2 CLR
18:52 20.8 °C 7.1 °C 1007.0 hPa WSW 42.6 km/h 42.6 km/h 41 % 0.0 mm 420.0 W/m2 CLR
18:57 19.3 °C 8.7 °C 1007.0 hPa West 37.0 km/h 37.0 km/h 50 % 0.0 mm 371.0 W/m2 CLR
19:02 19.1 °C 8.7 °C 1007.0 hPa WNW 20.4 km/h 20.4 km/h 51 % 0.0 mm 394.0 W/m2 CLR
19:07 19.6 °C 8.8 °C 1007.0 hPa WSW 18.5 km/h 18.5 km/h 50 % 0.0 mm 95.0 W/m2 CLR
19:12 19.6 °C 7.6 °C 1007.3 hPa NW 31.5 km/h 31.5 km/h 46 % 0.0 mm 54.0 W/m2 CLR
19:13 19.6 °C 7.3 °C 1007.7 hPa NNW 33.3 km/h 33.3 km/h 45 % 0.0 mm 35.0 W/m2 CLR
19:18 18.1 °C 8.9 °C 1008.0 hPa NNW 37.0 km/h 37.0 km/h 55 % 0.0 mm 42.0 W/m2 SCT
19:23 16.4 °C 9.1 °C 1008.7 hPa NNW 46.3 km/h 46.3 km/h 62 % 0.0 mm 39.0 W/m2 BKN
19:28 14.9 °C 8.9 °C 1009.0 hPa NW 42.6 km/h 42.6 km/h 67 % 0.0 mm 49.0 W/m2 BKN
19:33 14.1 °C 9.1 °C 1009.7 hPa North 48.1 km/h 48.1 km/h 72 % 0.0 mm 33.0 W/m2 BKN
19:38 13.3 °C 8.9 °C 1009.7 hPa NNW 33.3 km/h 33.3 km/h 75 % 0.0 mm 42.0 W/m2 BKN
19:43 12.8 °C 9.2 °C 1009.7 hPa North 29.6 km/h 29.6 km/h 79 % 0.0 mm 42.0 W/m2 BKN
19:48 12.3 °C 8.9 °C 1009.7 hPa NNW 37.0 km/h 37.0 km/h 80 % 0.3 mm 40.0 W/m2 RA
19:53 11.9 °C 8.9 °C 1010.4 hPa NNW 35.2 km/h 35.2 km/h 82 % 0.3 mm 14.0 W/m2 BKN
19:58 11.7 °C 8.9 °C 1010.4 hPa NW 20.4 km/h 20.4 km/h 83 % 0.3 mm 11.0 W/m2 BKN
20:03 11.7 °C 9.2 °C 1010.4 hPa WNW 22.2 km/h 22.2 km/h 85 % 0.5 mm 12.0 W/m2 RA
20:08 11.5 °C 9.1 °C 1010.7 hPa NW 24.1 km/h 24.1 km/h 85 % 0.5 mm 7.0 W/m2 RA
20:13 11.4 °C 9.1 °C 1010.7 hPa NW 22.2 km/h 22.2 km/h 86 % 0.5 mm 7.0 W/m2 BKN
20:18 11.3 °C 9.1 °C 1010.7 hPa NNW 18.5 km/h 18.5 km/h 86 % 0.5 mm 12.0 W/m2 BKN
20:23 11.3 °C 9.2 °C 1011.1 hPa WNW 18.5 km/h 18.5 km/h 87 % 0.8 mm 9.0 W/m2 RA
20:28 11.2 °C 9.1 °C 1011.1 hPa NW 14.5 km/h 14.5 km/h 87 % 1.0 mm 14.0 W/m2 RA
20:34 11.1 °C 9.2 °C 1011.1 hPa WNW 16.7 km/h 16.7 km/h 88 % 1.3 mm 7.0 W/m2 RA
20:38 11.0 °C 9.1 °C 1011.4 hPa WNW 14.8 km/h 14.8 km/h 88 % 1.3 mm 5.0 W/m2 CLR
20:39 10.9 °C 9.1 °C 1011.4 hPa WNW 16.7 km/h 16.7 km/h 88 % 1.3 mm 5.0 W/m2 CLR
20:44 10.9 °C 9.0 °C 1011.4 hPa West 13.0 km/h 13.0 km/h 88 % 1.5 mm 5.0 W/m2 RA
20:49 10.9 °C 9.1 °C 1011.1 hPa WSW 14.8 km/h 14.8 km/h 88 % 1.3 mm 5.0 W/m2 CLR
20:54 10.9 °C 9.1 °C 1011.4 hPa West 20.4 km/h 20.4 km/h 88 % 1.3 mm 0.0 W/m2 OVC
20:59 10.9 °C 8.9 °C 1011.4 hPa WSW 7.4 km/h 7.4 km/h 87 % 1.3 mm 0.0 W/m2 OVC
21:04 10.9 °C 8.9 °C 1011.4 hPa SW 14.8 km/h 14.8 km/h 87 % 1.0 mm 0.0 W/m2 CLR
21:09 11.0 °C 9.1 °C 1011.4 hPa WSW 14.8 km/h 14.8 km/h 88 % 0.8 mm 0.0 W/m2 CLR
21:14 10.9 °C 9.0 °C 1011.4 hPa WSW 16.7 km/h 16.7 km/h 88 % 0.8 mm 0.0 W/m2 CLR
21:19 10.8 °C 8.9 °C 1011.4 hPa WSW 18.5 km/h 18.5 km/h 88 % 0.8 mm 0.0 W/m2 CLR
21:24 10.8 °C 8.9 °C 1011.4 hPa WSW 16.7 km/h 16.7 km/h 88 % 0.5 mm 0.0 W/m2 CLR
21:29 10.8 °C 8.9 °C 1011.4 hPa WSW 16.7 km/h 16.7 km/h 88 % 0.5 mm 0.0 W/m2 CLR
21:34 10.8 °C 8.9 °C 1011.4 hPa WSW 14.8 km/h 14.8 km/h 88 % 0.3 mm 0.0 W/m2 CLR
21:39 10.8 °C 8.9 °C 1011.4 hPa WSW 18.5 km/h 18.5 km/h 88 % 0.3 mm 0.0 W/m2 CLR
21:40 10.9 °C 9.0 °C 1011.4 hPa WSW 18.5 km/h 18.5 km/h 88 % 0.3 mm 0.0 W/m2 CLR
21:45 11.0 °C 8.9 °C 1011.7 hPa WSW 18.5 km/h 18.5 km/h 87 % 0.0 mm 0.0 W/m2 CLR
21:50 11.1 °C 8.8 °C 1011.7 hPa WSW 18.5 km/h 18.5 km/h 86 % 0.0 mm 0.0 W/m2 CLR
21:55 11.2 °C 8.9 °C 1012.1 hPa SW 16.7 km/h 16.7 km/h 86 % 0.0 mm 0.0 W/m2 CLR
22:00 11.2 °C 8.9 °C 1012.1 hPa WSW 16.7 km/h 16.7 km/h 86 % 0.0 mm 0.0 W/m2 CLR
22:05 11.2 °C 8.9 °C 1012.1 hPa WSW 14.8 km/h 14.8 km/h 86 % 0.0 mm 0.0 W/m2 CLR
22:10 11.2 °C 8.9 °C 1011.7 hPa SSW 11.1 km/h 11.1 km/h 86 % 0.0 mm 0.0 W/m2 CLR
22:15 11.2 °C 8.9 °C 1012.1 hPa West 13.0 km/h 13.0 km/h 86 % 0.0 mm 0.0 W/m2 CLR
22:20 11.1 °C 8.8 °C 1012.1 hPa WSW 3.7 km/h   86 % 0.0 mm 0.0 W/m2 CLR
22:25 11.1 °C 8.7 °C 1012.1 hPa WSW 9.3 km/h 9.3 km/h 85 % 0.0 mm 0.0 W/m2 CLR
22:30 11.2 °C 8.6 °C 1012.1 hPa West 3.7 km/h   84 % 0.0 mm 0.0 W/m2 CLR
22:35 11.3 °C 8.3 °C 1012.1 hPa West 12.9 km/h 12.9 km/h 82 % 0.0 mm 0.0 W/m2 CLR
22:40 11.4 °C 7.9 °C 1012.4 hPa West 13.0 km/h 13.0 km/h 79 % 0.0 mm 0.0 W/m2 CLR
22:45 11.6 °C 7.7 °C 1012.4 hPa WNW 18.5 km/h 18.5 km/h 77 % 0.0 mm 0.0 W/m2 CLR
22:50 11.7 °C 7.8 °C 1012.4 hPa West 14.8 km/h 14.8 km/h 77 % 0.0 mm 0.0 W/m2 CLR
22:55 11.7 °C 7.8 °C 1012.8 hPa WNW 7.4 km/h 7.4 km/h 77 % 0.0 mm 0.0 W/m2 CLR
23:00 11.6 °C 7.8 °C 1012.8 hPa WNW 11.1 km/h 11.1 km/h 78 % 0.0 mm 0.0 W/m2 CLR
23:01 11.6 °C 7.8 °C 1012.8 hPa WNW 11.1 km/h 11.1 km/h 78 % 0.0 mm 0.0 W/m2 CLR
23:06 11.6 °C 7.8 °C 1012.8 hPa Calm     78 % 0.0 mm 0.0 W/m2 CLR
23:10 11.4 °C 7.9 °C 1013.1 hPa Calm     79 % 0.0 mm 0.0 W/m2 CLR
23:16 11.3 °C 8.0 °C 1013.1 hPa Calm     80 % 0.0 mm 0.0 W/m2 CLR
23:21 11.3 °C 7.9 °C 1013.1 hPa Calm     80 % 0.0 mm 0.0 W/m2 CLR
23:26 11.2 °C 7.9 °C 1013.1 hPa Calm     80 % 0.0 mm 0.0 W/m2 CLR
23:31 11.2 °C 7.9 °C 1013.1 hPa Calm     80 % 0.0 mm 0.0 W/m2 CLR
23:36 11.2 °C 8.1 °C 1013.1 hPa Calm     81 % 0.0 mm 0.0 W/m2 CLR
23:41 11.2 °C 8.0 °C 1013.1 hPa Calm     81 % 0.0 mm 0.0 W/m2 CLR
23:46 11.2 °C 7.9 °C 1013.1 hPa Calm     80 % 0.0 mm 0.0 W/m2 CLR
23:51 11.3 °C 7.8 °C 1013.1 hPa Calm     79 % 0.0 mm 0.0 W/m2 CLR
23:56 11.4 °C 7.9 °C 1013.1 hPa Calm     79 % 0.0 mm 0.0 W/m2 CLR
Lo Temps de Massalio
Compliments of Weather Underground - 1.25 mb